createdAt,value
2022-10-30T00:00:27.581Z,51.33
2022-10-30T00:02:19.740Z,50.83
2022-10-30T00:03:52.918Z,47.23
2022-10-30T00:05:27.933Z,53.50
2022-10-30T00:07:00.144Z,49.87
2022-10-30T00:08:32.770Z,49.13
2022-10-30T00:10:05.987Z,49.40
2022-10-30T00:11:38.361Z,46.70
2022-10-30T00:13:12.078Z,51.43
2022-10-30T00:14:44.263Z,45.20
2022-10-30T00:16:16.466Z,51.80
2022-10-30T00:17:48.909Z,55.23
2022-10-30T00:19:21.292Z,56.47
2022-10-30T00:20:53.660Z,46.80
2022-10-30T00:22:26.116Z,46.93
2022-10-30T00:23:58.524Z,52.63
2022-10-30T00:25:30.795Z,49.57
2022-10-30T00:27:03.154Z,54.17
2022-10-30T00:28:35.551Z,51.53
2022-10-30T00:30:09.245Z,53.37
2022-10-30T00:31:41.997Z,55.27
2022-10-30T00:33:14.221Z,51.23
2022-10-30T00:34:46.387Z,52.90
2022-10-30T00:36:20.098Z,50.70
2022-10-30T00:37:52.447Z,48.00
2022-10-30T00:39:24.722Z,51.60
2022-10-30T00:40:56.872Z,52.97
2022-10-30T00:42:31.517Z,51.03
2022-10-30T00:44:03.772Z,54.70
2022-10-30T00:45:36.115Z,53.90
2022-10-30T00:47:17.385Z,50.83
2022-10-30T00:49:13.727Z,51.57
2022-10-30T00:50:46.374Z,55.80
2022-10-30T00:52:21.671Z,53.90
2022-10-30T00:53:59.398Z,50.73
2022-10-30T00:55:42.613Z,51.40
2022-10-30T00:57:14.929Z,50.67
2022-10-30T00:58:58.897Z,47.07
2022-10-30T01:00:31.682Z,56.60
2022-10-30T01:02:05.421Z,48.73
2022-10-30T01:03:40.753Z,49.47
2022-10-30T01:05:18.754Z,50.20
2022-10-30T01:06:53.578Z,51.53
2022-10-30T01:08:26.167Z,45.90
2022-10-30T01:09:59.752Z,52.07
2022-10-30T01:11:32.703Z,45.00
2022-10-30T01:13:05.707Z,47.37
2022-10-30T01:14:45.206Z,57.23
2022-10-30T01:16:45.285Z,54.10
2022-10-30T01:18:35.523Z,56.00
2022-10-30T01:20:37.920Z,46.53
2022-10-30T01:22:33.341Z,52.63
2022-10-30T01:24:26.849Z,48.30
2022-10-30T01:26:17.773Z,55.40
2022-10-30T01:28:28.179Z,56.43
2022-10-30T01:30:28.450Z,51.00
2022-10-30T01:32:18.781Z,54.10
2022-10-30T01:34:15.862Z,55.10
2022-10-30T01:36:13.918Z,52.70
2022-10-30T01:37:58.510Z,54.87
2022-10-30T01:39:39.457Z,63.67
2022-10-30T01:41:11.953Z,60.00
2022-10-30T01:42:50.203Z,61.80
2022-10-30T01:44:33.607Z,61.50
2022-10-30T01:46:40.044Z,61.57
2022-10-30T01:49:03.107Z,62.90
2022-10-30T01:51:30.304Z,57.03
2022-10-30T01:53:26.964Z,66.10
2022-10-30T01:55:43.842Z,54.10
2022-10-30T01:57:56.092Z,58.40
2022-10-30T01:59:49.339Z,57.33
2022-10-30T02:01:24.689Z,52.27
2022-10-30T02:02:57.767Z,61.07
2022-10-30T02:04:31.111Z,61.30
2022-10-30T02:06:04.191Z,61.80
2022-10-30T02:07:37.483Z,57.93
2022-10-30T02:09:09.729Z,58.60
2022-10-30T02:10:45.537Z,61.37
2022-10-30T02:12:19.411Z,62.90
2022-10-30T02:13:56.179Z,60.83
2022-10-30T02:15:29.794Z,53.70
2022-10-30T02:17:06.972Z,61.00
2022-10-30T02:18:40.299Z,56.97
2022-10-30T02:20:20.752Z,61.30
2022-10-30T02:21:53.396Z,56.33
2022-10-30T02:23:25.826Z,57.93
2022-10-30T02:24:58.018Z,57.63
2022-10-30T02:26:30.674Z,61.20
2022-10-30T02:28:02.859Z,58.30
2022-10-30T02:29:35.256Z,56.97
2022-10-30T02:31:07.676Z,59.73
2022-10-30T02:32:40.093Z,59.40
2022-10-30T02:34:12.937Z,65.63
2022-10-30T02:35:45.146Z,60.07
2022-10-30T02:37:17.388Z,56.70
2022-10-30T02:38:49.842Z,58.83
2022-10-30T02:40:21.987Z,60.57
2022-10-30T02:41:54.407Z,57.23
2022-10-30T02:43:26.672Z,61.93
2022-10-30T02:44:59.279Z,60.10
2022-10-30T02:46:32.669Z,58.93
2022-10-30T02:48:05.623Z,57.37
2022-10-30T02:49:38.120Z,62.47
2022-10-30T02:51:12.413Z,62.60
2022-10-30T02:52:45.834Z,59.23
2022-10-30T02:54:44.082Z,60.97
2022-10-30T02:56:17.249Z,59.50
2022-10-30T02:57:49.389Z,61.50
2022-10-30T02:59:21.553Z,61.90
2022-10-30T03:00:53.794Z,57.93
2022-10-30T03:02:26.315Z,61.30
2022-10-30T03:03:58.590Z,68.80
2022-10-30T03:05:30.819Z,60.53
2022-10-30T03:07:03.009Z,59.83
2022-10-30T03:08:36.338Z,59.70
2022-10-30T03:10:09.258Z,63.33
2022-10-30T03:11:42.037Z,61.93
2022-10-30T03:13:14.286Z,68.80
2022-10-30T03:14:46.957Z,61.37
2022-10-30T03:16:33.637Z,60.57
2022-10-30T03:18:06.148Z,59.50
2022-10-30T03:19:38.587Z,60.40
2022-10-30T03:21:15.587Z,63.27
2022-10-30T03:22:47.784Z,62.93
2022-10-30T03:24:20.243Z,56.87
2022-10-30T03:25:55.385Z,66.90
2022-10-30T03:27:27.766Z,58.30
2022-10-30T03:29:00.040Z,61.63
2022-10-30T03:30:33.506Z,62.67
2022-10-30T03:32:10.940Z,62.10
2022-10-30T03:33:45.201Z,59.27
2022-10-30T03:35:18.706Z,61.97
2022-10-30T03:36:50.917Z,61.10
2022-10-30T03:38:23.280Z,60.77
2022-10-30T03:39:55.930Z,57.07
2022-10-30T03:41:28.518Z,63.03
2022-10-30T03:43:00.937Z,62.30
2022-10-30T03:44:33.338Z,59.80
2022-10-30T03:46:06.116Z,61.40
2022-10-30T03:47:40.714Z,61.47
2022-10-30T03:49:13.050Z,57.00
2022-10-30T03:50:46.369Z,60.93
2022-10-30T03:52:18.894Z,58.60
2022-10-30T03:53:51.206Z,59.27
2022-10-30T03:55:25.039Z,63.67
2022-10-30T03:56:57.395Z,59.50
2022-10-30T03:58:30.742Z,56.60
2022-10-30T04:00:06.017Z,58.37
2022-10-30T04:01:39.190Z,64.43
2022-10-30T04:03:12.074Z,65.20
2022-10-30T04:04:44.919Z,65.17
2022-10-30T04:06:17.856Z,59.57
2022-10-30T04:08:00.450Z,64.00
2022-10-30T04:09:32.838Z,61.30
2022-10-30T04:11:05.462Z,59.53
2022-10-30T04:12:38.581Z,60.63
2022-10-30T04:14:10.767Z,65.73
2022-10-30T04:15:43.338Z,65.63
2022-10-30T04:17:15.925Z,66.73
2022-10-30T04:18:48.101Z,57.47
2022-10-30T04:20:22.091Z,58.93
2022-10-30T04:21:54.495Z,61.10
2022-10-30T04:23:26.917Z,63.73
2022-10-30T04:24:59.207Z,64.90
2022-10-30T04:26:31.369Z,58.63
2022-10-30T04:28:04.261Z,59.57
2022-10-30T04:29:37.884Z,61.40
2022-10-30T04:31:10.120Z,60.93
2022-10-30T04:32:54.353Z,58.17
2022-10-30T04:34:26.536Z,60.00
2022-10-30T04:35:59.031Z,62.57
2022-10-30T04:37:31.257Z,68.43
2022-10-30T04:39:04.317Z,67.17
2022-10-30T04:40:40.765Z,69.40
2022-10-30T04:42:13.236Z,76.13
2022-10-30T04:43:48.145Z,65.60
2022-10-30T04:45:21.057Z,67.83
2022-10-30T04:46:53.587Z,65.37
2022-10-30T04:48:26.157Z,64.47
2022-10-30T04:49:58.518Z,58.70
2022-10-30T04:51:30.841Z,68.33
2022-10-30T04:53:06.704Z,74.97
2022-10-30T04:54:39.156Z,69.70
2022-10-30T04:56:11.838Z,65.43
2022-10-30T04:57:44.057Z,64.23
2022-10-30T04:59:16.302Z,57.50
2022-10-30T05:00:48.674Z,65.00
2022-10-30T05:02:20.929Z,68.93
2022-10-30T05:03:54.871Z,68.67
2022-10-30T05:05:31.817Z,77.20
2022-10-30T05:07:04.288Z,78.77
2022-10-30T05:08:36.686Z,65.83
2022-10-30T05:10:14.746Z,63.97
2022-10-30T05:11:47.561Z,65.70
2022-10-30T05:13:20.649Z,63.63
2022-10-30T05:14:52.789Z,71.07
2022-10-30T05:16:25.013Z,70.77
2022-10-30T05:17:57.734Z,67.90
2022-10-30T05:19:30.797Z,69.87
2022-10-30T05:21:03.211Z,61.13
2022-10-30T05:22:35.558Z,63.30
2022-10-30T05:24:08.617Z,70.03
2022-10-30T05:25:41.042Z,64.23
2022-10-30T05:27:13.238Z,57.77
2022-10-30T05:28:45.423Z,58.90
2022-10-30T05:30:17.921Z,66.83
2022-10-30T05:31:50.394Z,62.87
2022-10-30T05:33:23.568Z,79.50
2022-10-30T05:34:56.223Z,73.33
2022-10-30T05:36:28.514Z,84.70
2022-10-30T05:38:03.035Z,76.50
2022-10-30T05:39:37.066Z,74.53
2022-10-30T05:41:09.296Z,77.27
2022-10-30T05:42:51.635Z,86.20
2022-10-30T05:44:34.699Z,74.80
2022-10-30T05:46:16.342Z,80.00
2022-10-30T05:48:04.285Z,84.83
2022-10-30T05:49:36.817Z,85.40
2022-10-30T05:51:09.007Z,91.90
2022-10-30T05:52:41.395Z,91.63
2022-10-30T05:54:13.686Z,83.33
2022-10-30T05:55:46.066Z,79.83
2022-10-30T05:57:18.394Z,92.63
2022-10-30T05:58:51.281Z,73.97
2022-10-30T06:00:23.853Z,77.00
2022-10-30T06:01:56.912Z,80.27
2022-10-30T06:03:29.199Z,75.60
2022-10-30T06:05:01.503Z,77.00
2022-10-30T06:06:33.761Z,80.97
2022-10-30T06:08:07.966Z,91.10
2022-10-30T06:09:40.880Z,99.33
2022-10-30T06:11:13.055Z,97.67
2022-10-30T06:13:01.132Z,92.63
2022-10-30T06:14:34.379Z,81.47
2022-10-30T06:16:06.857Z,147.37
2022-10-30T06:17:39.023Z,204.67
2022-10-30T06:19:15.652Z,222.70
2022-10-30T06:20:51.352Z,156.03
2022-10-30T06:22:23.618Z,95.63
2022-10-30T06:23:55.970Z,102.47
2022-10-30T06:25:37.703Z,92.50
2022-10-30T06:27:13.267Z,89.40
2022-10-30T06:28:55.088Z,91.87
2022-10-30T06:30:29.681Z,98.97
2022-10-30T06:32:05.723Z,96.97
2022-10-30T06:33:39.391Z,106.63
2022-10-30T06:35:12.325Z,101.10
2022-10-30T06:36:48.263Z,106.27
2022-10-30T06:38:24.733Z,89.87
2022-10-30T06:39:57.057Z,87.37
2022-10-30T06:41:30.429Z,134.83
2022-10-30T06:43:03.293Z,94.47
2022-10-30T06:44:35.578Z,98.43
2022-10-30T06:46:08.779Z,84.30
2022-10-30T06:47:41.391Z,83.13
2022-10-30T06:49:13.624Z,87.53
2022-10-30T06:50:45.882Z,81.37
2022-10-30T06:52:22.921Z,81.63
2022-10-30T06:53:55.285Z,81.53
2022-10-30T06:55:27.414Z,76.60
2022-10-30T06:56:59.886Z,82.20
2022-10-30T06:58:32.358Z,77.83
2022-10-30T07:00:07.773Z,78.33
2022-10-30T07:01:40.394Z,77.07
2022-10-30T07:03:12.582Z,69.47
2022-10-30T07:04:47.693Z,69.07
2022-10-30T07:06:20.017Z,69.33
2022-10-30T07:07:52.444Z,67.13
2022-10-30T07:09:24.588Z,61.80
2022-10-30T07:10:58.677Z,65.77
2022-10-30T07:12:31.482Z,62.67
2022-10-30T07:14:04.039Z,60.80
2022-10-30T07:15:36.517Z,59.47
2022-10-30T07:17:09.250Z,59.17
2022-10-30T07:18:41.523Z,56.67
2022-10-30T07:20:13.923Z,58.23
2022-10-30T07:21:46.085Z,58.87
2022-10-30T07:23:18.695Z,63.20
2022-10-30T07:24:51.135Z,59.93
2022-10-30T07:26:23.406Z,58.07
2022-10-30T07:27:57.450Z,67.83
2022-10-30T07:29:30.465Z,69.70
2022-10-30T07:31:02.652Z,65.60
2022-10-30T07:32:35.069Z,59.13
2022-10-30T07:34:08.171Z,62.47
2022-10-30T07:35:40.576Z,61.77
2022-10-30T07:37:12.724Z,58.87
2022-10-30T07:38:44.894Z,51.40
2022-10-30T07:40:18.143Z,52.93
2022-10-30T07:41:51.823Z,57.17
2022-10-30T07:43:24.735Z,58.07
2022-10-30T07:44:57.026Z,52.50
2022-10-30T07:46:29.293Z,49.97
2022-10-30T07:48:02.407Z,57.67
2022-10-30T07:49:35.133Z,54.47
2022-10-30T07:51:07.959Z,53.77
2022-10-30T07:52:40.165Z,54.17
2022-10-30T07:54:12.601Z,50.10
2022-10-30T07:55:44.841Z,50.83
2022-10-30T07:57:17.049Z,54.27
2022-10-30T07:58:49.374Z,56.20
2022-10-30T08:00:21.915Z,55.10
2022-10-30T08:04:43.111Z,59.80
2022-10-30T08:06:15.486Z,56.90
2022-10-30T08:07:48.359Z,60.20
2022-10-30T08:09:20.534Z,55.53
2022-10-30T08:10:52.846Z,56.70
2022-10-30T08:12:27.412Z,57.50
2022-10-30T08:14:00.146Z,58.43
2022-10-30T08:15:33.438Z,52.63
2022-10-30T08:17:07.666Z,54.20
2022-10-30T08:18:42.511Z,50.97
2022-10-30T08:20:19.131Z,50.67
2022-10-30T08:21:56.092Z,53.30
2022-10-30T08:23:31.724Z,49.70
2022-10-30T08:25:04.284Z,54.60
2022-10-30T08:26:37.140Z,48.63
2022-10-30T08:28:11.812Z,49.73
2022-10-30T08:29:44.215Z,53.93
2022-10-30T08:31:16.393Z,49.80
2022-10-30T08:32:48.579Z,49.80
2022-10-30T08:34:21.005Z,48.43
2022-10-30T08:35:57.459Z,51.27
2022-10-30T08:37:29.728Z,50.70
2022-10-30T08:39:04.175Z,50.83
2022-10-30T08:40:36.430Z,52.33
2022-10-30T08:42:09.275Z,54.47
2022-10-30T08:43:41.633Z,53.47
2022-10-30T08:45:14.045Z,54.33
2022-10-30T08:46:46.279Z,50.47
2022-10-30T08:48:18.811Z,49.87
2022-10-30T08:49:51.528Z,48.80
2022-10-30T08:51:24.086Z,51.07
2022-10-30T08:52:57.044Z,50.97
2022-10-30T08:54:29.961Z,52.10
2022-10-30T08:56:02.320Z,61.90
2022-10-30T08:57:38.544Z,54.13
2022-10-30T08:59:11.091Z,49.87
2022-10-30T09:00:43.899Z,52.77
2022-10-30T09:02:16.281Z,52.27
2022-10-30T09:03:48.609Z,49.10
2022-10-30T09:05:21.251Z,53.70
2022-10-30T09:06:54.168Z,57.40
2022-10-30T09:08:27.306Z,54.60
2022-10-30T09:09:59.904Z,54.23
2022-10-30T09:11:32.525Z,48.77
2022-10-30T09:13:05.619Z,59.40
2022-10-30T09:14:38.413Z,55.83
2022-10-30T09:16:10.605Z,55.20
2022-10-30T09:17:42.908Z,52.13
2022-10-30T09:19:18.804Z,59.63
2022-10-30T09:20:51.360Z,49.27
2022-10-30T09:22:23.873Z,56.10
2022-10-30T09:23:56.190Z,50.87
2022-10-30T09:25:28.574Z,52.07
2022-10-30T09:27:01.328Z,47.97
2022-10-30T09:28:33.637Z,48.83
2022-10-30T09:30:07.276Z,50.97
2022-10-30T09:31:40.169Z,48.43
2022-10-30T09:33:12.918Z,51.97
2022-10-30T09:34:45.320Z,51.97
2022-10-30T09:36:22.070Z,48.57
2022-10-30T09:37:57.351Z,50.87
2022-10-30T09:39:30.474Z,48.43
2022-10-30T09:42:03.954Z,52.93
2022-10-30T09:43:51.793Z,51.27
2022-10-30T09:46:03.261Z,51.03
2022-10-30T09:48:08.625Z,48.43
2022-10-30T09:50:23.920Z,54.53
2022-10-30T09:52:13.667Z,49.77
2022-10-30T09:54:10.681Z,47.40
2022-10-30T09:56:02.826Z,48.07
2022-10-30T09:58:05.248Z,47.70
2022-10-30T09:59:57.168Z,47.50
2022-10-30T10:01:38.687Z,48.83
2022-10-30T10:03:35.941Z,52.17
2022-10-30T10:05:28.852Z,54.67
2022-10-30T10:07:18.720Z,51.70
2022-10-30T10:09:01.720Z,52.00
2022-10-30T10:10:39.989Z,49.60
2022-10-30T10:12:37.916Z,53.37
2022-10-30T10:14:18.264Z,49.20
2022-10-30T10:15:59.024Z,52.63
2022-10-30T10:17:39.523Z,48.33
2022-10-30T10:19:36.450Z,53.27
2022-10-30T10:21:25.383Z,50.90
2022-10-30T10:23:10.590Z,51.30
2022-10-30T10:24:47.556Z,54.27
2022-10-30T10:26:48.489Z,45.73
2022-10-30T10:28:43.057Z,46.93
2022-10-30T10:30:22.523Z,49.57
2022-10-30T10:32:38.797Z,45.70
2022-10-30T10:34:33.973Z,48.00
2022-10-30T10:36:49.318Z,47.70
2022-10-30T10:38:48.042Z,43.10
2022-10-30T10:40:54.324Z,52.33
2022-10-30T10:42:45.049Z,44.80
2022-10-30T10:45:17.498Z,45.70
2022-10-30T10:47:16.512Z,44.33
2022-10-30T10:49:16.579Z,47.63
2022-10-30T10:51:01.684Z,42.73
2022-10-30T10:52:40.017Z,43.43
2022-10-30T10:54:28.222Z,47.27
2022-10-30T10:56:01.627Z,43.43
2022-10-30T10:57:40.293Z,42.50
2022-10-30T10:59:34.845Z,42.73
2022-10-30T11:01:15.976Z,42.27
2022-10-30T11:03:07.388Z,48.13
2022-10-30T11:04:52.725Z,48.37
2022-10-30T11:06:31.854Z,41.20
2022-10-30T11:08:28.793Z,41.77
2022-10-30T11:10:02.416Z,45.13
2022-10-30T11:11:35.202Z,41.53
2022-10-30T11:13:13.226Z,44.13
2022-10-30T11:14:45.842Z,49.43
2022-10-30T11:16:53.681Z,39.40
2022-10-30T11:18:26.186Z,38.47
2022-10-30T11:20:11.993Z,42.10
2022-10-30T11:21:51.642Z,48.97
2022-10-30T11:23:47.863Z,43.70
2022-10-30T11:25:26.811Z,42.83
2022-10-30T11:27:28.664Z,38.27
2022-10-30T11:29:20.110Z,46.87
2022-10-30T11:31:16.646Z,42.70
2022-10-30T11:32:49.176Z,39.87
2022-10-30T11:34:34.945Z,42.00
2022-10-30T11:36:15.537Z,37.73
2022-10-30T11:38:13.923Z,35.37
2022-10-30T11:40:06.825Z,37.07
2022-10-30T11:41:39.971Z,39.13
2022-10-30T11:43:21.891Z,42.53
2022-10-30T11:44:54.470Z,42.83
2022-10-30T11:46:27.095Z,40.20
2022-10-30T11:48:02.956Z,39.63
2022-10-30T11:49:47.846Z,40.83
2022-10-30T11:51:35.961Z,40.93
2022-10-30T11:53:30.725Z,35.97
2022-10-30T11:55:41.379Z,38.30
2022-10-30T11:57:24.023Z,42.20
2022-10-30T11:59:00.950Z,42.17
2022-10-30T12:00:37.931Z,42.63
2022-10-30T12:02:27.241Z,41.20
2022-10-30T12:04:25.629Z,41.10
2022-10-30T12:06:23.046Z,42.17
2022-10-30T12:08:18.493Z,41.27
2022-10-30T12:09:50.750Z,39.80
2022-10-30T12:11:36.172Z,37.53
2022-10-30T12:13:19.518Z,40.60
2022-10-30T12:14:53.319Z,38.70
2022-10-30T12:16:27.823Z,38.77
2022-10-30T12:18:04.756Z,38.33
2022-10-30T12:19:38.037Z,36.37
2022-10-30T12:21:16.914Z,36.40
2022-10-30T12:22:49.997Z,39.13
2022-10-30T12:24:37.855Z,34.23
2022-10-30T12:26:12.957Z,39.67
2022-10-30T12:27:45.706Z,39.93
2022-10-30T12:29:26.346Z,42.47
2022-10-30T12:31:45.304Z,34.88
2022-10-30T12:33:35.393Z,37.15
2022-10-30T12:35:48.358Z,37.33
2022-10-30T12:37:40.176Z,34.57
2022-10-30T12:39:30.769Z,38.22
2022-10-30T12:41:12.622Z,36.80
2022-10-30T12:43:00.686Z,37.42
2022-10-30T12:44:44.583Z,38.08
2022-10-30T12:46:41.471Z,34.15
2022-10-30T12:48:42.164Z,34.10
2022-10-30T12:50:27.730Z,34.28
2022-10-30T12:52:12.176Z,34.42
2022-10-30T12:54:00.018Z,35.40
2022-10-30T12:55:54.499Z,30.20
2022-10-30T12:57:36.332Z,37.85
2022-10-30T12:59:27.679Z,35.58
2022-10-30T13:01:12.709Z,31.98
2022-10-30T13:03:32.976Z,31.75
2022-10-30T13:05:43.840Z,30.00
2022-10-30T13:07:34.018Z,30.70
2022-10-30T13:09:38.467Z,34.20
2022-10-30T13:11:43.199Z,35.00
2022-10-30T13:13:41.296Z,31.48
2022-10-30T13:15:42.254Z,33.15
2022-10-30T13:17:16.017Z,29.08
2022-10-30T13:18:48.796Z,30.60
2022-10-30T13:20:22.578Z,33.33
2022-10-30T13:22:08.898Z,35.20
2022-10-30T13:23:47.198Z,31.33
2022-10-30T13:25:38.351Z,34.78
2022-10-30T13:27:47.264Z,33.88
2022-10-30T13:29:48.387Z,38.97
2022-10-30T13:31:25.574Z,33.80
2022-10-30T13:33:31.205Z,33.88
2022-10-30T13:35:35.276Z,35.65
2022-10-30T13:37:35.210Z,34.85
2022-10-30T13:39:21.914Z,33.28
2022-10-30T13:41:27.455Z,30.95
2022-10-30T13:43:25.606Z,32.47
2022-10-30T13:45:13.074Z,33.60
2022-10-30T13:47:02.508Z,31.35
2022-10-30T13:49:04.859Z,32.80
2022-10-30T13:51:27.154Z,34.77
2022-10-30T13:53:09.100Z,40.00
2022-10-30T13:54:58.657Z,34.73
2022-10-30T13:56:32.889Z,39.90
2022-10-30T13:58:29.038Z,37.92
2022-10-30T14:00:30.755Z,36.57
2022-10-30T14:02:44.322Z,37.57
2022-10-30T14:04:38.574Z,34.10
2022-10-30T14:06:51.419Z,36.80
2022-10-30T14:08:58.029Z,37.83
2022-10-30T14:10:54.683Z,40.77
2022-10-30T14:12:58.046Z,42.47
2022-10-30T14:14:32.851Z,37.83
2022-10-30T14:16:27.403Z,37.33
2022-10-30T14:18:29.129Z,38.90
2022-10-30T14:20:13.757Z,43.03
2022-10-30T14:21:55.742Z,37.43
2022-10-30T14:23:38.436Z,39.87
2022-10-30T14:25:17.173Z,41.93
2022-10-30T14:27:03.428Z,40.17
2022-10-30T14:28:40.109Z,45.37
2022-10-30T14:30:20.334Z,47.57
2022-10-30T14:31:52.699Z,51.87
2022-10-30T14:33:40.189Z,48.37
2022-10-30T14:35:38.624Z,47.60
2022-10-30T14:37:13.857Z,38.47
2022-10-30T14:39:10.738Z,38.50
2022-10-30T14:41:20.133Z,43.03
2022-10-30T14:43:02.732Z,43.53
2022-10-30T14:45:09.770Z,44.13
2022-10-30T14:47:42.986Z,36.70
2022-10-30T14:49:27.650Z,42.37
2022-10-30T14:51:51.691Z,63.83
2022-10-30T14:53:58.383Z,43.50
2022-10-30T14:56:05.362Z,37.67
2022-10-30T14:57:52.379Z,43.67
2022-10-30T14:59:34.151Z,46.43
2022-10-30T15:01:09.910Z,41.67
2022-10-30T15:03:04.489Z,49.07
2022-10-30T15:05:30.516Z,45.27
2022-10-30T15:07:15.931Z,38.53
2022-10-30T15:09:26.469Z,44.23
2022-10-30T15:11:24.237Z,59.67
2022-10-30T15:13:20.288Z,42.40
2022-10-30T15:15:01.183Z,47.57
2022-10-30T15:16:40.452Z,52.07
2022-10-30T15:18:25.634Z,49.20
2022-10-30T15:20:05.015Z,49.80
2022-10-30T15:21:45.530Z,48.37
2022-10-30T15:23:34.573Z,45.73
2022-10-30T15:25:19.865Z,48.97
2022-10-30T15:27:00.815Z,51.50
2022-10-30T15:28:36.469Z,48.50
2022-10-30T15:30:22.618Z,51.90
2022-10-30T15:32:20.999Z,46.20
2022-10-30T15:33:54.979Z,47.10
2022-10-30T15:35:29.257Z,53.57
2022-10-30T15:37:12.734Z,51.73
2022-10-30T15:39:02.864Z,51.83
2022-10-30T15:40:38.168Z,65.80
2022-10-30T15:42:11.676Z,107.53
2022-10-30T15:43:44.890Z,81.20
2022-10-30T15:45:32.773Z,58.97
2022-10-30T15:47:14.686Z,54.50
2022-10-30T15:48:48.222Z,48.50
2022-10-30T15:50:21.975Z,48.87
2022-10-30T15:51:54.941Z,55.67
2022-10-30T15:53:45.711Z,54.13
2022-10-30T15:55:28.528Z,46.50
2022-10-30T15:57:42.824Z,45.17
2022-10-30T15:59:02.205Z,41.10
2022-10-30T16:00:38.811Z,44.67
2022-10-30T16:02:23.595Z,58.90
2022-10-30T16:03:56.458Z,72.87
2022-10-30T16:05:31.001Z,70.80
2022-10-30T16:07:24.879Z,56.83
2022-10-30T16:08:58.151Z,64.90
2022-10-30T16:10:37.020Z,51.37
2022-10-30T16:12:12.732Z,47.27
2022-10-30T16:13:45.179Z,43.33
2022-10-30T16:15:36.842Z,44.60
2022-10-30T16:17:11.660Z,49.73
2022-10-30T16:18:45.048Z,47.93
2022-10-30T16:20:18.542Z,53.10
2022-10-30T16:21:53.365Z,51.83
2022-10-30T16:23:26.160Z,42.20
2022-10-30T16:24:59.403Z,36.87
2022-10-30T16:26:39.111Z,45.30
2022-10-30T16:28:38.208Z,45.10
2022-10-30T16:30:14.833Z,47.50
2022-10-30T16:31:52.470Z,50.40
2022-10-30T16:33:29.434Z,49.97
2022-10-30T16:35:04.868Z,53.33
2022-10-30T16:36:40.195Z,54.80
2022-10-30T16:38:13.225Z,57.03
2022-10-30T16:39:49.611Z,52.37
2022-10-30T16:41:26.729Z,48.83
2022-10-30T16:43:03.389Z,52.17
2022-10-30T16:44:37.754Z,49.50
2022-10-30T16:46:16.010Z,52.13
2022-10-30T16:48:08.496Z,52.47
2022-10-30T16:49:57.523Z,48.70
2022-10-30T16:51:31.046Z,49.57
2022-10-30T16:53:19.844Z,48.30
2022-10-30T16:55:22.900Z,49.60
2022-10-30T16:57:00.114Z,53.33
2022-10-30T16:58:32.780Z,57.00
2022-10-30T17:00:06.341Z,49.43
2022-10-30T17:01:39.359Z,49.90
2022-10-30T17:03:12.372Z,50.10
2022-10-30T17:04:55.393Z,45.57
2022-10-30T17:06:43.208Z,51.87
2022-10-30T17:08:18.582Z,41.90
2022-10-30T17:09:53.838Z,47.00
2022-10-30T17:11:47.321Z,44.53
2022-10-30T17:13:34.887Z,44.70
2022-10-30T17:15:14.525Z,55.43
2022-10-30T17:16:57.954Z,59.33
2022-10-30T17:18:31.553Z,54.97
2022-10-30T17:20:32.998Z,52.53
2022-10-30T17:22:13.714Z,53.83
2022-10-30T17:23:54.786Z,50.70
2022-10-30T17:25:38.736Z,52.13
2022-10-30T17:27:49.560Z,49.33
2022-10-30T17:29:52.305Z,54.40
2022-10-30T17:31:36.269Z,61.60
2022-10-30T17:33:25.955Z,52.30
2022-10-30T17:35:12.386Z,58.17
2022-10-30T17:36:47.279Z,58.73
2022-10-30T17:38:19.709Z,52.13
2022-10-30T17:39:52.282Z,60.73
2022-10-30T17:41:24.581Z,55.57
2022-10-30T17:42:56.963Z,56.63
2022-10-30T17:44:34.501Z,58.57
2022-10-30T17:46:09.041Z,56.90
2022-10-30T17:47:42.084Z,57.00
2022-10-30T17:49:29.059Z,55.60
2022-10-30T17:51:01.287Z,61.87
2022-10-30T17:52:34.774Z,67.87
2022-10-30T17:54:13.735Z,66.50
2022-10-30T17:55:54.394Z,60.17
2022-10-30T17:57:29.726Z,67.73
2022-10-30T17:59:02.375Z,73.60
2022-10-30T18:00:34.681Z,64.60
2022-10-30T18:02:22.709Z,67.23
2022-10-30T18:03:56.180Z,82.13
2022-10-30T18:05:30.264Z,76.03
2022-10-30T18:07:03.010Z,77.77
2022-10-30T18:08:35.616Z,78.73
2022-10-30T18:10:09.619Z,75.60
2022-10-30T18:11:41.975Z,90.53
2022-10-30T18:13:16.034Z,88.20
2022-10-30T18:14:48.458Z,85.20
2022-10-30T18:16:21.162Z,88.20
2022-10-30T18:17:54.257Z,86.17
2022-10-30T18:19:26.933Z,96.47
2022-10-30T18:20:59.271Z,101.40
2022-10-30T18:22:31.627Z,100.13
2022-10-30T18:24:10.529Z,97.67
2022-10-30T18:25:42.979Z,102.37
2022-10-30T18:27:15.206Z,99.10
2022-10-30T18:28:48.621Z,96.37
2022-10-30T18:30:22.094Z,99.37
2022-10-30T18:31:54.858Z,93.37
2022-10-30T18:33:27.560Z,88.67
2022-10-30T18:35:00.242Z,88.37
2022-10-30T18:36:33.049Z,94.23
2022-10-30T18:38:08.241Z,94.93
2022-10-30T18:39:40.839Z,94.47
2022-10-30T18:41:27.874Z,93.77
2022-10-30T18:43:01.565Z,94.40
2022-10-30T18:44:34.341Z,93.50
2022-10-30T18:46:11.582Z,89.67
2022-10-30T18:47:44.051Z,89.17
2022-10-30T18:49:16.631Z,92.20
2022-10-30T18:50:49.920Z,85.87
2022-10-30T18:52:22.095Z,85.27
2022-10-30T18:53:57.159Z,84.17
2022-10-30T18:55:38.585Z,85.67
2022-10-30T18:57:11.560Z,79.03
2022-10-30T18:58:44.366Z,80.73
2022-10-30T19:00:20.718Z,73.40
2022-10-30T19:01:53.364Z,77.70
2022-10-30T19:03:25.930Z,81.20
2022-10-30T19:04:58.084Z,71.17
2022-10-30T19:06:30.706Z,70.77
2022-10-30T19:08:05.076Z,71.20
2022-10-30T19:09:37.588Z,73.07
2022-10-30T19:11:18.718Z,74.33
2022-10-30T19:13:14.651Z,69.57
2022-10-30T19:14:49.373Z,70.90
2022-10-30T19:16:24.521Z,69.30
2022-10-30T19:17:56.962Z,71.07
2022-10-30T19:19:29.445Z,72.87
2022-10-30T19:21:05.189Z,72.03
2022-10-30T19:22:40.426Z,69.07
2022-10-30T19:24:17.764Z,68.47
2022-10-30T19:25:50.728Z,64.50
2022-10-30T19:27:24.419Z,78.73
2022-10-30T19:28:56.762Z,74.33
2022-10-30T19:30:29.648Z,76.10
2022-10-30T19:32:02.035Z,72.13
2022-10-30T19:33:34.666Z,66.33
2022-10-30T19:35:07.937Z,60.03
2022-10-30T19:36:40.197Z,60.90
2022-10-30T19:38:13.938Z,58.83
2022-10-30T19:39:46.318Z,51.60
2022-10-30T19:41:18.564Z,61.90
2022-10-30T19:42:52.598Z,57.90
2022-10-30T19:44:24.746Z,53.97
2022-10-30T19:45:57.968Z,52.17
2022-10-30T19:47:30.125Z,59.87
2022-10-30T19:49:17.868Z,52.47
2022-10-30T19:50:50.573Z,53.83
2022-10-30T19:52:28.143Z,55.90
2022-10-30T19:54:01.590Z,48.30
2022-10-30T19:55:38.504Z,51.93
2022-10-30T19:57:14.214Z,53.87
2022-10-30T19:58:46.943Z,60.60
2022-10-30T20:00:26.932Z,56.13
2022-10-30T20:01:59.617Z,51.13
2022-10-30T20:03:32.856Z,47.77
2022-10-30T20:05:06.111Z,55.70
2022-10-30T20:06:38.970Z,55.27
2022-10-30T20:08:19.936Z,58.57
2022-10-30T20:09:52.394Z,60.20
2022-10-30T20:11:25.281Z,54.93
2022-10-30T20:12:57.865Z,54.60
2022-10-30T20:14:30.254Z,61.27
2022-10-30T20:16:04.981Z,63.03
2022-10-30T20:17:37.752Z,57.93
2022-10-30T20:19:31.156Z,70.10
2022-10-30T20:21:10.193Z,85.60
2022-10-30T20:22:43.153Z,91.70
2022-10-30T20:24:15.473Z,96.90
2022-10-30T20:25:55.263Z,119.63
2022-10-30T20:27:28.142Z,101.63
2022-10-30T20:29:02.506Z,103.17
2022-10-30T20:30:34.742Z,108.67
2022-10-30T20:32:09.527Z,113.93
2022-10-30T20:33:42.002Z,113.63
2022-10-30T20:35:15.703Z,150.53
2022-10-30T20:36:48.922Z,109.13
2022-10-30T20:38:29.360Z,141.23
2022-10-30T20:40:01.751Z,109.10
2022-10-30T20:41:35.604Z,111.53
2022-10-30T20:43:16.411Z,111.90
2022-10-30T20:44:48.653Z,110.27
2022-10-30T20:46:21.636Z,102.07
2022-10-30T20:47:54.626Z,112.27
2022-10-30T20:49:27.263Z,113.60
2022-10-30T20:51:01.812Z,113.33
2022-10-30T20:52:34.390Z,113.63
2022-10-30T20:54:07.157Z,114.77
2022-10-30T20:55:40.794Z,124.33
2022-10-30T20:57:13.282Z,116.47
2022-10-30T20:58:45.532Z,115.53
2022-10-30T21:00:19.152Z,112.33
2022-10-30T21:01:51.341Z,119.13
2022-10-30T21:03:25.287Z,117.97
2022-10-30T21:05:00.354Z,119.37
2022-10-30T21:06:39.541Z,121.93
2022-10-30T21:08:15.309Z,127.57
2022-10-30T21:09:47.579Z,122.40
2022-10-30T21:11:19.733Z,126.23
2022-10-30T21:14:29.578Z,114.33
2022-10-30T21:16:08.551Z,130.00
2022-10-30T21:17:40.823Z,122.73
2022-10-30T21:19:13.367Z,115.93
2022-10-30T21:20:45.786Z,122.60
2022-10-30T21:22:17.966Z,126.53
2022-10-30T21:23:54.981Z,124.77